createdAt,value
2023-05-24T00:00:53.663Z,97126.48
2023-05-24T00:03:26.448Z,97126.79
2023-05-24T00:05:59.150Z,97130.40
2023-05-24T00:08:31.839Z,97125.69
2023-05-24T00:11:04.611Z,97121.09
2023-05-24T00:13:37.591Z,97120.13
2023-05-24T00:16:13.098Z,97116.14
2023-05-24T00:18:48.545Z,97118.95
2023-05-24T00:21:21.400Z,97113.88
2023-05-24T00:24:11.570Z,97116.19
2023-05-24T00:27:06.841Z,97113.27
2023-05-24T00:29:40.101Z,97109.58
2023-05-24T00:32:10.878Z,97105.39
2023-05-24T00:34:43.688Z,97105.88
2023-05-24T00:37:18.454Z,97108.11
2023-05-24T00:39:51.470Z,97108.22
2023-05-24T00:42:24.311Z,97107.33
2023-05-24T00:44:57.331Z,97108.79
2023-05-24T00:47:29.827Z,97108.13
2023-05-24T00:50:03.161Z,97108.08
2023-05-24T00:52:36.406Z,97109.30
2023-05-24T00:55:11.462Z,97107.96
2023-05-24T00:57:46.882Z,97102.70
2023-05-24T01:00:23.664Z,97108.80
2023-05-24T01:02:58.899Z,97109.80
2023-05-24T01:05:33.893Z,97110.19
2023-05-24T01:08:17.467Z,97111.39
2023-05-24T01:11:01.525Z,97112.23
2023-05-24T01:13:46.229Z,97115.85
2023-05-24T01:16:23.327Z,97114.73
2023-05-24T01:18:58.873Z,97113.27
2023-05-24T01:21:49.446Z,97115.11
2023-05-24T01:24:32.624Z,97116.34
2023-05-24T01:27:14.217Z,97114.34
2023-05-24T01:29:53.668Z,97115.89
2023-05-24T01:32:27.743Z,97118.56
2023-05-24T01:35:01.103Z,97116.23
2023-05-24T01:37:33.915Z,97117.50
2023-05-24T01:40:07.970Z,97116.38
2023-05-24T01:42:51.523Z,97116.75
2023-05-24T01:45:31.684Z,97119.14
2023-05-24T01:48:19.228Z,97118.69
2023-05-24T01:50:55.138Z,97119.14
2023-05-24T01:53:34.497Z,97113.66
2023-05-24T01:56:09.321Z,97115.77
2023-05-24T01:58:46.504Z,97120.40
2023-05-24T02:01:19.810Z,97121.27
2023-05-24T02:03:55.052Z,97122.73
2023-05-24T02:06:27.831Z,97118.94
2023-05-24T02:09:00.614Z,97121.69
2023-05-24T02:11:36.181Z,97123.02
2023-05-24T02:14:09.867Z,97126.96
2023-05-24T02:16:43.165Z,97127.79
2023-05-24T02:19:16.009Z,97127.80
2023-05-24T02:21:49.312Z,97127.55
2023-05-24T02:24:22.173Z,97123.55
2023-05-24T02:26:55.816Z,97117.38
2023-05-24T02:29:28.961Z,97120.08
2023-05-24T02:32:01.638Z,97118.93
2023-05-24T02:34:34.454Z,97125.98
2023-05-24T02:37:07.258Z,97128.31
2023-05-24T02:39:40.112Z,97129.83
2023-05-24T02:42:13.153Z,97130.17
2023-05-24T02:44:50.494Z,97131.14
2023-05-24T02:47:23.806Z,97132.93
2023-05-24T02:49:56.613Z,97133.80
2023-05-24T02:52:33.492Z,97134.61
2023-05-24T02:55:07.184Z,97134.06
2023-05-24T02:57:39.963Z,97139.11
2023-05-24T03:00:16.378Z,97143.40
2023-05-24T03:02:55.928Z,97143.67
2023-05-24T03:05:28.599Z,97145.46
2023-05-24T03:08:01.100Z,97145.18
2023-05-24T03:10:35.636Z,97149.41
2023-05-24T03:13:08.282Z,97148.36
2023-05-24T03:15:43.389Z,97151.05
2023-05-24T03:18:16.398Z,97150.39
2023-05-24T03:20:50.062Z,97148.59
2023-05-24T03:23:22.599Z,97151.61
2023-05-24T03:25:55.344Z,97151.02
2023-05-24T03:28:28.074Z,97154.17
2023-05-24T03:31:00.816Z,97157.08
2023-05-24T03:33:33.637Z,97159.70
2023-05-24T03:36:06.870Z,97162.31
2023-05-24T03:38:39.825Z,97160.59
2023-05-24T03:41:12.519Z,97164.55
2023-05-24T03:43:44.965Z,97158.20
2023-05-24T03:46:24.307Z,97160.91
2023-05-24T03:48:56.970Z,97160.21
2023-05-24T03:51:30.642Z,97164.43
2023-05-24T03:54:03.972Z,97164.52
2023-05-24T03:56:36.686Z,97165.52
2023-05-24T03:59:09.217Z,97175.55
2023-05-24T04:01:42.912Z,97178.48
2023-05-24T04:04:15.628Z,97179.86
2023-05-24T04:06:50.189Z,97182.89
2023-05-24T04:09:25.249Z,97184.33
2023-05-24T04:11:58.121Z,97186.84
2023-05-24T04:14:29.202Z,97183.09
2023-05-24T04:17:03.008Z,97186.84
2023-05-24T04:19:35.551Z,97192.41
2023-05-24T04:22:10.834Z,97199.29
2023-05-24T04:24:43.413Z,97202.48
2023-05-24T04:27:18.524Z,97203.46
2023-05-24T04:29:54.342Z,97211.88
2023-05-24T04:32:30.832Z,97215.44
2023-05-24T04:35:06.287Z,97218.02
2023-05-24T04:37:40.573Z,97223.57
2023-05-24T04:40:16.744Z,97226.01
2023-05-24T04:42:49.326Z,97232.27
2023-05-24T04:45:21.920Z,97234.64
2023-05-24T04:47:54.760Z,97235.85
2023-05-24T04:50:30.434Z,97238.10
2023-05-24T04:53:04.529Z,97239.06
2023-05-24T04:55:37.494Z,97240.59
2023-05-24T04:58:10.860Z,97244.21
2023-05-24T05:00:43.985Z,97245.52
2023-05-24T05:03:21.002Z,97250.65
2023-05-24T05:05:54.087Z,97251.17
2023-05-24T05:08:27.064Z,97255.61
2023-05-24T05:10:59.661Z,97260.38
2023-05-24T05:13:33.901Z,97261.89
2023-05-24T05:16:11.771Z,97266.56
2023-05-24T05:18:45.413Z,97273.75
2023-05-24T05:21:18.757Z,97276.35
2023-05-24T05:23:51.822Z,97278.95
2023-05-24T05:26:24.428Z,97282.10
2023-05-24T05:28:57.295Z,97285.30
2023-05-24T05:31:32.620Z,97285.98
2023-05-24T05:34:05.810Z,97289.31
2023-05-24T05:36:40.931Z,97292.53
2023-05-24T05:39:15.357Z,97293.63
2023-05-24T05:41:48.110Z,97301.60
2023-05-24T05:44:20.947Z,97305.38
2023-05-24T05:46:53.655Z,97307.30
2023-05-24T05:49:26.467Z,97311.98
2023-05-24T05:51:58.973Z,97314.80
2023-05-24T05:54:31.757Z,97317.33
2023-05-24T05:57:13.790Z,97320.32
2023-05-24T05:59:46.528Z,97320.69
2023-05-24T06:02:19.215Z,97322.95
2023-05-24T06:04:53.376Z,97326.40
2023-05-24T06:07:26.081Z,97328.05
2023-05-24T06:09:58.952Z,97330.39
2023-05-24T06:12:31.552Z,97331.66
2023-05-24T06:15:06.950Z,97333.65
2023-05-24T06:17:39.999Z,97334.22
2023-05-24T06:20:17.585Z,97335.84
2023-05-24T06:22:51.123Z,97336.91
2023-05-24T06:25:24.889Z,97344.11
2023-05-24T06:27:58.849Z,97345.25
2023-05-24T06:30:35.035Z,97348.56
2023-05-24T06:33:07.950Z,97350.09
2023-05-24T06:35:40.493Z,97349.58
2023-05-24T06:38:13.200Z,97353.91
2023-05-24T06:40:46.259Z,97358.02
2023-05-24T06:43:19.233Z,97360.42
2023-05-24T06:45:52.035Z,97364.21
2023-05-24T06:48:24.885Z,97368.31
2023-05-24T06:50:58.283Z,97366.45
2023-05-24T06:53:31.016Z,97375.55
2023-05-24T06:56:03.944Z,97378.40
2023-05-24T06:58:36.865Z,97377.89
2023-05-24T07:01:10.083Z,97383.04
2023-05-24T07:03:42.992Z,97384.73
2023-05-24T07:06:16.870Z,97389.48
2023-05-24T07:08:49.507Z,97390.89
2023-05-24T07:11:22.415Z,97389.77
2023-05-24T07:13:56.254Z,97391.52
2023-05-24T07:16:29.398Z,97397.98
2023-05-24T07:19:04.674Z,97396.02
2023-05-24T07:21:38.072Z,97400.40
2023-05-24T07:24:15.396Z,97402.80
2023-05-24T07:26:49.141Z,97401.06
2023-05-24T07:29:22.340Z,97401.29
2023-05-24T07:31:56.962Z,97403.63
2023-05-24T07:34:30.727Z,97409.70
2023-05-24T07:37:03.872Z,97414.95
2023-05-24T07:39:36.553Z,97414.92
2023-05-24T07:42:10.011Z,97415.79
2023-05-24T07:44:42.602Z,97416.37
2023-05-24T07:47:16.256Z,97418.52
2023-05-24T07:49:49.119Z,97417.00
2023-05-24T07:52:23.659Z,97423.29
2023-05-24T07:54:56.378Z,97427.89
2023-05-24T07:57:29.760Z,97431.77
2023-05-24T08:00:09.211Z,97433.55
2023-05-24T08:02:46.794Z,97427.17
2023-05-24T08:05:19.758Z,97431.52
2023-05-24T08:07:52.864Z,97431.41
2023-05-24T08:10:25.994Z,97432.96
2023-05-24T08:12:57.488Z,97437.27
2023-05-24T08:15:30.109Z,97439.33
2023-05-24T08:18:04.123Z,97440.66
2023-05-24T08:20:37.000Z,97442.05
2023-05-24T08:23:09.499Z,97444.11
2023-05-24T08:25:42.969Z,97442.05
2023-05-24T08:28:18.208Z,97445.84
2023-05-24T08:30:54.234Z,97448.23
2023-05-24T08:33:27.092Z,97449.84
2023-05-24T08:35:59.613Z,97452.36
2023-05-24T08:38:32.161Z,97455.89
2023-05-24T08:41:07.385Z,97457.44
2023-05-24T08:43:41.193Z,97458.83
2023-05-24T08:46:15.914Z,97458.33
2023-05-24T08:48:50.223Z,97460.98
2023-05-24T08:51:23.927Z,97470.80
2023-05-24T08:53:57.993Z,97474.58
2023-05-24T08:56:31.024Z,97478.01
2023-05-24T08:59:03.777Z,97481.48
2023-05-24T09:01:39.850Z,97482.83
2023-05-24T09:04:13.557Z,97486.20
2023-05-24T09:06:46.490Z,97487.55
2023-05-24T09:09:20.290Z,97492.09
2023-05-24T09:11:58.793Z,97493.87
2023-05-24T09:14:32.118Z,97499.97
2023-05-24T09:17:06.134Z,97502.99
2023-05-24T09:19:39.699Z,97504.33
2023-05-24T09:22:13.154Z,97509.40
2023-05-24T09:24:51.207Z,97510.16
2023-05-24T09:27:24.278Z,97509.33
2023-05-24T09:29:56.846Z,97510.97
2023-05-24T09:32:30.938Z,97513.23
2023-05-24T09:35:04.733Z,97519.74
2023-05-24T09:37:40.829Z,97524.02
2023-05-24T09:40:22.546Z,97529.73
2023-05-24T09:43:09.241Z,97534.36
2023-05-24T09:45:47.198Z,97537.92
2023-05-24T09:48:22.665Z,97539.48
2023-05-24T09:51:05.894Z,97544.59
2023-05-24T09:53:39.101Z,97543.95
2023-05-24T09:56:12.168Z,97545.14
2023-05-24T09:58:46.742Z,97547.76
2023-05-24T10:01:21.495Z,97549.64
2023-05-24T10:03:59.423Z,97548.94
2023-05-24T10:06:33.614Z,97552.44
2023-05-24T10:09:10.371Z,97554.88
2023-05-24T10:11:45.402Z,97562.77
2023-05-24T10:14:33.913Z,97560.59
2023-05-24T10:17:28.403Z,97564.50
2023-05-24T10:20:01.528Z,97569.27
2023-05-24T10:22:38.978Z,97571.05
2023-05-24T10:25:19.130Z,97572.09
2023-05-24T10:27:54.441Z,97575.05
2023-05-24T10:30:35.587Z,97572.82
2023-05-24T10:33:10.453Z,97573.42
2023-05-24T10:35:45.909Z,97578.02
2023-05-24T10:38:18.862Z,97577.48
2023-05-24T10:40:52.148Z,97579.36
2023-05-24T10:43:26.144Z,97579.98
2023-05-24T10:45:59.483Z,97584.80
2023-05-24T10:48:42.030Z,97588.11
2023-05-24T10:51:39.302Z,97594.59
2023-05-24T10:54:20.593Z,97597.45
2023-05-24T10:56:54.703Z,97597.91
2023-05-24T10:59:30.477Z,97595.85
2023-05-24T11:02:05.078Z,97599.23
2023-05-24T11:04:43.656Z,97606.08
2023-05-24T11:07:20.534Z,97605.20
2023-05-24T11:09:57.648Z,97606.16
2023-05-24T11:12:39.339Z,97607.77
2023-05-24T11:15:16.575Z,97604.53
2023-05-24T11:18:20.884Z,97603.42
2023-05-24T11:20:54.524Z,97604.73
2023-05-24T11:23:27.380Z,97604.42
2023-05-24T11:26:00.413Z,97607.17
2023-05-24T11:28:34.061Z,97611.45
2023-05-24T11:31:11.822Z,97615.10
2023-05-24T11:33:46.626Z,97620.05
2023-05-24T11:36:20.863Z,97621.83
2023-05-24T11:38:55.732Z,97624.84
2023-05-24T11:41:28.973Z,97626.29
2023-05-24T11:44:00.256Z,97627.05
2023-05-24T11:46:33.797Z,97625.51
2023-05-24T11:49:07.487Z,97627.82
2023-05-24T11:51:40.092Z,97632.38
2023-05-24T11:54:14.074Z,97635.56
2023-05-24T11:56:46.966Z,97634.74
2023-05-24T11:59:24.331Z,97630.27
2023-05-24T12:02:03.017Z,97631.36
2023-05-24T12:04:37.860Z,97633.80
2023-05-24T12:07:14.654Z,97631.34
2023-05-24T12:09:47.876Z,97634.81
2023-05-24T12:12:26.608Z,97630.90
2023-05-24T12:15:04.195Z,97631.73
2023-05-24T12:17:37.832Z,97628.28
2023-05-24T12:20:15.826Z,97627.55
2023-05-24T12:22:54.081Z,97630.65
2023-05-24T12:25:28.007Z,97629.35
2023-05-24T12:28:00.969Z,97629.09
2023-05-24T12:30:33.920Z,97626.13
2023-05-24T12:33:09.606Z,97627.48
2023-05-24T12:35:51.721Z,97628.96
2023-05-24T12:38:26.083Z,97626.04
2023-05-24T12:41:12.228Z,97628.87
2023-05-24T12:43:48.391Z,97629.02
2023-05-24T12:46:21.118Z,97626.48
2023-05-24T12:48:53.691Z,97627.63
2023-05-24T12:51:26.425Z,97621.46
2023-05-24T12:53:58.934Z,97624.91
2023-05-24T12:56:31.601Z,97627.48
2023-05-24T12:59:04.453Z,97625.48
2023-05-24T13:01:37.530Z,97628.58
2023-05-24T13:04:14.123Z,97637.04
2023-05-24T13:06:48.509Z,97638.00
2023-05-24T13:09:22.418Z,97639.82
2023-05-24T13:11:55.722Z,97633.58
2023-05-24T13:14:26.579Z,97632.17
2023-05-24T13:16:59.280Z,97632.52
2023-05-24T13:19:32.182Z,97630.58
2023-05-24T13:22:05.845Z,97633.31
2023-05-24T13:24:39.055Z,97629.90
2023-05-24T13:27:09.897Z,97632.23
2023-05-24T13:29:56.413Z,97635.75
2023-05-24T13:32:33.786Z,97636.20
2023-05-24T13:35:08.600Z,97635.91
2023-05-24T13:37:41.646Z,97635.30
2023-05-24T13:40:15.109Z,97640.41
2023-05-24T13:42:48.148Z,97644.76
2023-05-24T13:45:24.614Z,97646.80
2023-05-24T13:48:04.391Z,97649.00
2023-05-24T13:50:38.376Z,97645.31
2023-05-24T13:53:11.515Z,97641.17
2023-05-24T13:55:44.815Z,97639.06
2023-05-24T13:58:18.044Z,97639.48
2023-05-24T14:00:48.873Z,97636.89
2023-05-24T14:03:21.552Z,97640.17
2023-05-24T14:05:54.520Z,97640.08
2023-05-24T14:08:30.263Z,97640.73
2023-05-24T14:11:03.264Z,97642.27
2023-05-24T14:16:13.100Z,97645.84
2023-05-24T14:18:46.209Z,97643.83
2023-05-24T14:21:19.605Z,97642.93
2023-05-24T14:23:53.360Z,97645.77
2023-05-24T14:26:26.372Z,97651.71
2023-05-24T14:29:00.217Z,97652.31
2023-05-24T14:31:34.069Z,97655.06
2023-05-24T14:34:06.727Z,97653.20
2023-05-24T14:36:40.902Z,97652.14
2023-05-24T14:39:13.677Z,97654.91
2023-05-24T14:41:46.438Z,97652.96
2023-05-24T14:44:19.529Z,97646.08
2023-05-24T14:46:51.282Z,97651.98
2023-05-24T14:49:25.202Z,97652.82
2023-05-24T14:51:58.003Z,97653.10
2023-05-24T14:54:30.559Z,97655.13
2023-05-24T14:57:04.080Z,97654.60
2023-05-24T14:59:35.291Z,97654.27
2023-05-24T15:02:09.591Z,97653.98
2023-05-24T15:04:42.224Z,97657.36
2023-05-24T15:07:15.922Z,97656.30
2023-05-24T15:09:48.436Z,97659.36
2023-05-24T15:12:21.550Z,97656.03
2023-05-24T15:14:54.202Z,97655.95
2023-05-24T15:17:27.614Z,97659.16
2023-05-24T15:20:01.100Z,97656.85
2023-05-24T15:22:31.952Z,97659.83
2023-05-24T15:25:04.672Z,97661.00
2023-05-24T15:27:37.481Z,97660.27
2023-05-24T15:30:11.831Z,97662.98
2023-05-24T15:32:46.267Z,97659.71
2023-05-24T15:35:20.656Z,97661.48
2023-05-24T15:37:53.669Z,97661.38
2023-05-24T15:40:26.651Z,97667.21
2023-05-24T15:42:59.627Z,97669.85
2023-05-24T15:45:31.228Z,97667.73
2023-05-24T15:48:06.329Z,97671.64
2023-05-24T15:50:59.967Z,97676.30
2023-05-24T15:53:32.474Z,97676.88
2023-05-24T15:56:03.164Z,97683.73
2023-05-24T15:58:36.085Z,97685.55
2023-05-24T16:01:08.845Z,97689.54
2023-05-24T16:03:41.660Z,97692.04
2023-05-24T16:06:14.832Z,97700.02
2023-05-24T16:08:49.978Z,97700.67
2023-05-24T16:11:23.921Z,97707.01
2023-05-24T16:13:57.519Z,97710.84
2023-05-24T16:16:30.190Z,97707.63
2023-05-24T16:19:04.282Z,97714.45
2023-05-24T16:21:37.289Z,97711.57
2023-05-24T16:24:10.171Z,97713.06
2023-05-24T16:26:43.393Z,97714.41
2023-05-24T16:29:18.386Z,97717.75
2023-05-24T16:31:51.776Z,97720.25
2023-05-24T16:34:28.196Z,97723.42
2023-05-24T16:37:01.388Z,97724.25
2023-05-24T16:39:37.087Z,97728.17
2023-05-24T16:42:09.804Z,97728.45
2023-05-24T16:44:43.886Z,97728.68
2023-05-24T16:47:17.992Z,97731.63
2023-05-24T16:49:50.987Z,97737.06
2023-05-24T16:52:23.819Z,97735.25
2023-05-24T16:54:57.048Z,97737.54
2023-05-24T16:57:29.612Z,97742.33
2023-05-24T17:00:02.380Z,97745.42
2023-05-24T17:02:35.559Z,97749.63
2023-05-24T17:05:09.409Z,97751.97
2023-05-24T17:07:43.190Z,97749.96
2023-05-24T17:10:16.450Z,97750.82
2023-05-24T17:12:49.875Z,97755.06
2023-05-24T17:15:23.247Z,97756.91
2023-05-24T17:17:56.555Z,97759.19
2023-05-24T17:20:29.930Z,97759.83
2023-05-24T17:23:02.785Z,97758.86
2023-05-24T17:25:37.929Z,97760.92
2023-05-24T17:28:13.446Z,97762.43
2023-05-24T17:30:46.228Z,97761.08
2023-05-24T17:33:19.619Z,97759.52
2023-05-24T17:35:58.065Z,97761.41
2023-05-24T17:38:33.353Z,97764.23
2023-05-24T17:41:08.281Z,97767.73
2023-05-24T17:43:42.548Z,97768.41
2023-05-24T17:46:18.623Z,97772.62
2023-05-24T17:48:52.379Z,97775.42
2023-05-24T17:51:25.844Z,97779.71
2023-05-24T17:53:56.524Z,97786.08
2023-05-24T17:56:32.201Z,97787.98
2023-05-24T17:59:05.476Z,97793.17
2023-05-24T18:01:40.362Z,97803.26
2023-05-24T18:04:13.284Z,97811.59
2023-05-24T18:06:46.542Z,97817.52
2023-05-24T18:09:21.420Z,97815.92
2023-05-24T18:11:56.720Z,97816.20
2023-05-24T18:14:31.397Z,97818.65
2023-05-24T18:17:09.836Z,97819.02
2023-05-24T18:19:43.788Z,97823.59
2023-05-24T18:22:16.674Z,97823.56
2023-05-24T18:24:49.316Z,97823.41
2023-05-24T18:27:22.314Z,97828.71
2023-05-24T18:29:53.564Z,97833.79
2023-05-24T18:32:27.947Z,97837.71
2023-05-24T18:35:01.576Z,97842.78
2023-05-24T18:37:35.084Z,97843.69
2023-05-24T18:40:13.968Z,97847.30
2023-05-24T18:42:47.563Z,97853.55
2023-05-24T18:45:20.952Z,97855.52
2023-05-24T18:47:54.576Z,97857.96
2023-05-24T18:50:28.850Z,97856.35
2023-05-24T18:53:02.196Z,97859.59
2023-05-24T18:55:35.246Z,97859.08
2023-05-24T18:58:08.194Z,97864.86
2023-05-24T19:00:40.818Z,97869.38
2023-05-24T19:03:14.281Z,97876.35
2023-05-24T19:05:48.999Z,97877.08
2023-05-24T19:08:22.922Z,97877.19
2023-05-24T19:10:56.576Z,97880.09
2023-05-24T19:13:29.274Z,97875.69
2023-05-24T19:16:02.180Z,97873.86
2023-05-24T19:18:35.502Z,97877.70
2023-05-24T19:21:09.525Z,97872.44
2023-05-24T19:23:42.949Z,97866.86
2023-05-24T19:26:13.576Z,97869.09
2023-05-24T19:28:50.896Z,97874.40
2023-05-24T19:31:26.011Z,97875.16
2023-05-24T19:34:01.010Z,97869.09
2023-05-24T19:36:34.297Z,97866.91
2023-05-24T19:39:07.565Z,97863.84
2023-05-24T19:41:40.345Z,97865.80
2023-05-24T19:44:13.657Z,97865.30
2023-05-24T19:46:45.426Z,97866.96
2023-05-24T19:49:18.451Z,97862.78
2023-05-24T19:51:51.031Z,97860.35
2023-05-24T19:54:25.317Z,97863.58
2023-05-24T19:56:58.749Z,97864.66
2023-05-24T19:59:30.204Z,97867.94
2023-05-24T20:02:03.059Z,97871.70
2023-05-24T20:04:35.983Z,97872.92
2023-05-24T20:07:09.094Z,97876.27
2023-05-24T20:09:43.367Z,97883.77
2023-05-24T20:12:16.376Z,97885.41
2023-05-24T20:14:51.655Z,97879.04
2023-05-24T20:17:24.618Z,97875.93
2023-05-24T20:19:58.930Z,97878.35
2023-05-24T20:22:34.696Z,97879.85
2023-05-24T20:25:13.936Z,97877.32
2023-05-24T20:27:47.354Z,97877.33
2023-05-24T20:30:21.795Z,97872.87
2023-05-24T20:32:55.524Z,97875.51
2023-05-24T20:35:28.997Z,97873.77
2023-05-24T20:38:01.708Z,97876.89
2023-05-24T20:40:34.488Z,97871.55
2023-05-24T20:43:08.985Z,97871.56
2023-05-24T20:45:42.355Z,97867.96
2023-05-24T20:48:15.510Z,97867.34
2023-05-24T20:50:49.756Z,97863.33
2023-05-24T20:53:22.670Z,97865.19
2023-05-24T20:55:57.735Z,97863.48
2023-05-24T20:58:31.222Z,97862.19
2023-05-24T21:01:03.838Z,97857.86
2023-05-24T21:03:37.757Z,97853.70
2023-05-24T21:06:10.901Z,97858.27
2023-05-24T21:08:46.463Z,97853.89
2023-05-24T21:11:19.266Z,97854.50
2023-05-24T21:13:52.114Z,97858.54
2023-05-24T21:16:25.167Z,97864.89
2023-05-24T21:19:00.875Z,97869.58
2023-05-24T21:21:33.535Z,97875.11
2023-05-24T21:24:06.755Z,97877.86
2023-05-24T21:26:39.898Z,97877.42
2023-05-24T21:29:14.183Z,97885.48
2023-05-24T21:31:47.099Z,97890.35
2023-05-24T21:34:19.900Z,97893.63
2023-05-24T21:36:52.443Z,97900.92
2023-05-24T21:39:25.642Z,97901.23
2023-05-24T21:41:58.133Z,97906.27
2023-05-24T21:44:30.907Z,97906.09
2023-05-24T21:47:03.359Z,97908.20
2023-05-24T21:49:36.211Z,97908.80
2023-05-24T21:52:09.259Z,97912.45
2023-05-24T21:54:42.334Z,97913.53
2023-05-24T21:57:15.196Z,97907.55
2023-05-24T21:59:48.207Z,97906.41
2023-05-24T22:02:21.145Z,97904.21
2023-05-24T22:04:54.141Z,97895.11
2023-05-24T22:07:27.321Z,97894.46
2023-05-24T22:10:00.251Z,97895.73
2023-05-24T22:12:32.821Z,97898.40
2023-05-24T22:15:06.441Z,97899.33
2023-05-24T22:17:41.470Z,97907.91
2023-05-24T22:20:16.662Z,97907.73
2023-05-24T22:22:53.858Z,97906.92
2023-05-24T22:25:28.533Z,97904.50
2023-05-24T22:28:01.566Z,97899.33
2023-05-24T22:30:35.667Z,97900.46
2023-05-24T22:33:08.449Z,97907.52
2023-05-24T22:35:41.670Z,97918.13
2023-05-24T22:38:14.743Z,97921.83
2023-05-24T22:40:47.770Z,97925.09
2023-05-24T22:43:20.187Z,97924.38
2023-05-24T22:45:53.236Z,97929.27
2023-05-24T22:48:27.088Z,97930.80
2023-05-24T22:50:59.807Z,97931.78
2023-05-24T22:53:32.662Z,97937.08
2023-05-24T22:56:06.257Z,97942.82
2023-05-24T22:58:39.517Z,97946.47
2023-05-24T23:01:12.208Z,97941.88
2023-05-24T23:03:45.052Z,97939.42
2023-05-24T23:06:18.063Z,97947.95
2023-05-24T23:08:50.833Z,97945.64
2023-05-24T23:11:25.039Z,97942.27
2023-05-24T23:13:59.922Z,97946.81
2023-05-24T23:16:34.547Z,97949.61
2023-05-24T23:19:07.213Z,97952.80
2023-05-24T23:21:42.501Z,97953.70
2023-05-24T23:24:16.190Z,97960.33
2023-05-24T23:26:48.641Z,97955.23
2023-05-24T23:29:21.144Z,97956.63
2023-05-24T23:31:54.325Z,97955.52
2023-05-24T23:34:27.082Z,97959.20
2023-05-24T23:37:00.171Z,97956.46
2023-05-24T23:39:35.059Z,97957.66
2023-05-24T23:42:08.742Z,97953.77
2023-05-24T23:44:39.362Z,97946.60
2023-05-24T23:47:12.200Z,97953.21
2023-05-24T23:49:44.784Z,97956.70
2023-05-24T23:52:17.496Z,97960.59
2023-05-24T23:54:50.124Z,97960.73
2023-05-24T23:57:25.476Z,97963.40
2023-05-24T23:59:57.995Z,97959.71
